createdAt,value
2018-12-29T00:00:48.151Z,103066.66
2018-12-29T00:03:16.997Z,103072.72
2018-12-29T00:05:46.368Z,103076.77
2018-12-29T00:08:15.295Z,103073.47
2018-12-29T00:10:45.580Z,103079.13
2018-12-29T00:13:14.363Z,103083.75
2018-12-29T00:15:43.176Z,103079.89
2018-12-29T00:18:11.983Z,103079.69
2018-12-29T00:20:40.772Z,103072.70
2018-12-29T00:23:09.563Z,103071.78
2018-12-29T00:25:38.426Z,103071.98
2018-12-29T00:28:07.219Z,103063.00
2018-12-29T00:30:37.122Z,103064.84
2018-12-29T00:33:05.935Z,103071.06
2018-12-29T00:35:34.770Z,103065.92
2018-12-29T00:38:03.623Z,103071.78
2018-12-29T00:40:32.412Z,103070.70
2018-12-29T00:43:01.244Z,103069.05
2018-12-29T00:45:30.115Z,103064.07
2018-12-29T00:47:58.966Z,103065.19
2018-12-29T00:50:27.816Z,103071.41
2018-12-29T00:52:56.847Z,103071.97
2018-12-29T00:55:25.728Z,103072.33
2018-12-29T00:57:54.522Z,103075.09
2018-12-29T01:00:23.410Z,103061.33
2018-12-29T01:02:52.253Z,103062.41
2018-12-29T01:05:21.039Z,103069.75
2018-12-29T01:07:49.878Z,103077.47
2018-12-29T01:10:18.667Z,103077.27
2018-12-29T01:12:47.463Z,103081.52
2018-12-29T01:15:16.264Z,103079.67
2018-12-29T01:17:45.675Z,103083.88
2018-12-29T01:20:15.117Z,103078.38
2018-12-29T01:22:43.940Z,103071.59
2018-12-29T01:25:13.723Z,103075.09
2018-12-29T01:27:43.066Z,103077.66
2018-12-29T01:30:11.837Z,103080.95
2018-12-29T01:32:40.635Z,103085.37
2018-12-29T01:35:09.432Z,103086.81
2018-12-29T01:37:38.935Z,103096.73
2018-12-29T01:40:07.812Z,103105.53
2018-12-29T01:42:36.587Z,103113.63
2018-12-29T01:45:05.720Z,103107.20
2018-12-29T01:47:34.563Z,103101.66
2018-12-29T01:50:03.361Z,103105.52
2018-12-29T01:52:32.143Z,103095.99
2018-12-29T01:55:00.979Z,103096.16
2018-12-29T01:57:29.980Z,103103.70
2018-12-29T01:59:58.809Z,103104.63
2018-12-29T02:02:27.620Z,103098.20
2018-12-29T02:04:56.431Z,103098.72
2018-12-29T02:07:25.267Z,103098.55
2018-12-29T02:09:54.052Z,103104.62
2018-12-29T02:12:23.273Z,103102.56
2018-12-29T02:14:52.080Z,103104.20
2018-12-29T02:17:20.869Z,103103.84
2018-12-29T02:19:49.664Z,103107.90
2018-12-29T02:22:18.492Z,103110.48
2018-12-29T02:24:47.322Z,103105.89
2018-12-29T02:27:16.202Z,103114.69
2018-12-29T02:29:44.997Z,103111.39
2018-12-29T02:32:13.883Z,103105.84
2018-12-29T02:34:42.724Z,103111.91
2018-12-29T02:37:11.555Z,103117.98
2018-12-29T02:39:40.356Z,103115.77
2018-12-29T02:42:09.883Z,103120.91
2018-12-29T02:44:40.419Z,103121.28
2018-12-29T02:47:09.280Z,103121.84
2018-12-29T02:49:38.076Z,103117.06
2018-12-29T02:52:06.965Z,103120.03
2018-12-29T02:54:35.825Z,103118.75
2018-12-29T02:57:04.627Z,103105.50
2018-12-29T02:59:34.379Z,103111.20
2018-12-29T03:02:03.958Z,103107.70
2018-12-29T03:04:32.747Z,103101.83
2018-12-29T03:07:02.707Z,103092.83
2018-12-29T03:09:32.392Z,103087.33
2018-12-29T03:12:01.538Z,103094.28
2018-12-29T03:14:30.347Z,103088.25
2018-12-29T03:16:59.221Z,103085.28
2018-12-29T03:19:29.319Z,103077.76
2018-12-29T03:21:58.234Z,103076.11
2018-12-29T03:24:27.151Z,103074.27
2018-12-29T03:26:56.690Z,103067.28
2018-12-29T03:29:25.550Z,103062.33
2018-12-29T03:31:54.394Z,103066.54
2018-12-29T03:34:23.176Z,103062.69
2018-12-29T03:36:52.018Z,103045.41
2018-12-29T03:39:20.815Z,103051.46
2018-12-29T03:41:49.643Z,103052.02
2018-12-29T03:44:18.452Z,103050.73
2018-12-29T03:46:47.296Z,103049.66
2018-12-29T03:49:16.962Z,103048.73
2018-12-29T03:51:45.775Z,103054.23
2018-12-29T03:54:14.563Z,103050.94
2018-12-29T03:56:43.847Z,103046.87
2018-12-29T03:59:13.330Z,103045.23
2018-12-29T04:01:42.139Z,103043.02
2018-12-29T04:04:11.020Z,103039.16
2018-12-29T04:06:41.557Z,103039.53
2018-12-29T04:09:25.696Z,103036.80
2018-12-29T04:11:54.495Z,103028.69
2018-12-29T04:14:24.447Z,103025.75
2018-12-29T04:16:54.289Z,103027.03
2018-12-29T04:19:23.158Z,103028.52
2018-12-29T04:21:52.799Z,103027.78
2018-12-29T04:24:22.453Z,103022.80
2018-12-29T04:26:51.273Z,103022.63
2018-12-29T04:29:20.155Z,103024.98
2018-12-29T04:31:48.971Z,103022.97
2018-12-29T04:34:17.799Z,103022.77
2018-12-29T04:36:47.432Z,103016.68
2018-12-29T04:39:16.251Z,103017.23
2018-12-29T04:41:45.147Z,103023.50
2018-12-29T04:44:13.938Z,103023.33
2018-12-29T04:46:42.904Z,103028.10
2018-12-29T04:49:11.744Z,103022.75
2018-12-29T04:51:40.533Z,103026.80
2018-12-29T04:54:09.437Z,103022.73
2018-12-29T04:56:38.237Z,103032.85
2018-12-29T04:59:07.086Z,103028.44
2018-12-29T05:01:36.543Z,103028.44
2018-12-29T05:04:05.431Z,103032.09
2018-12-29T05:06:34.231Z,103032.64
2018-12-29T05:09:03.062Z,103042.36
2018-12-29T05:11:32.545Z,103053.02
2018-12-29T05:14:02.424Z,103052.84
2018-12-29T05:16:31.562Z,103051.00
2018-12-29T05:19:00.447Z,103049.91
2018-12-29T05:21:30.135Z,103046.20
2018-12-29T05:23:58.987Z,103054.86
2018-12-29T05:26:29.130Z,103052.84
2018-12-29T05:28:57.882Z,103055.40
2018-12-29T05:31:26.744Z,103049.12
2018-12-29T05:33:55.596Z,103053.75
2018-12-29T05:36:24.425Z,103060.53
2018-12-29T05:38:53.206Z,103049.89
2018-12-29T05:41:22.876Z,103048.22
2018-12-29T05:43:51.714Z,103052.49
2018-12-29T05:46:20.785Z,103047.34
2018-12-29T05:48:50.589Z,103048.42
2018-12-29T05:51:19.489Z,103051.19
2018-12-29T05:53:48.315Z,103046.22
2018-12-29T05:56:17.942Z,103047.14
2018-12-29T05:58:45.946Z,103048.77
2018-12-29T06:01:14.842Z,103051.34
2018-12-29T06:03:43.631Z,103053.92
2018-12-29T06:06:13.774Z,103055.03
2018-12-29T06:08:43.547Z,103055.92
2018-12-29T06:11:12.375Z,103049.67
2018-12-29T06:13:41.167Z,103058.88
2018-12-29T06:16:11.676Z,103054.44
2018-12-29T06:18:40.883Z,103055.52
2018-12-29T06:21:09.640Z,103054.44
2018-12-29T06:23:38.480Z,103059.38
2018-12-29T06:26:07.267Z,103062.51
2018-12-29T06:28:36.144Z,103061.02
2018-12-29T06:31:05.015Z,103071.13
2018-12-29T06:33:37.861Z,103071.69
2018-12-29T06:36:06.684Z,103071.84
2018-12-29T06:38:35.460Z,103069.09
2018-12-29T06:41:04.280Z,103064.83
2018-12-29T06:43:33.437Z,103067.23
2018-12-29T06:46:02.210Z,103058.38
2018-12-29T06:48:31.062Z,103064.30
2018-12-29T06:50:59.928Z,103061.72
2018-12-29T06:53:29.307Z,103064.30
2018-12-29T06:55:58.172Z,103061.89
2018-12-29T06:58:27.039Z,103061.73
2018-12-29T07:00:55.820Z,103063.02
2018-12-29T07:03:25.415Z,103060.27
2018-12-29T07:05:54.246Z,103066.33
2018-12-29T07:08:23.039Z,103059.16
2018-12-29T07:10:52.760Z,103064.31
2018-12-29T07:13:23.430Z,103061.16
2018-12-29T07:15:52.479Z,103052.34
2018-12-29T07:18:21.256Z,103057.64
2018-12-29T07:20:50.098Z,103047.72
2018-12-29T07:23:18.927Z,103044.77
2018-12-29T07:25:47.825Z,103050.63
2018-12-29T07:28:16.648Z,103041.26
2018-12-29T07:30:45.550Z,103047.69
2018-12-29T07:33:14.339Z,103043.47
2018-12-29T07:35:43.935Z,103052.64
2018-12-29T07:38:13.359Z,103044.16
2018-12-29T07:40:42.524Z,103044.70
2018-12-29T07:43:11.311Z,103038.27
2018-12-29T07:45:40.203Z,103036.98
2018-12-29T07:48:09.060Z,103029.08
2018-12-29T07:50:37.925Z,103030.34
2018-12-29T07:53:08.548Z,103029.23
2018-12-29T07:55:37.345Z,103025.20
2018-12-29T07:58:06.221Z,103022.95
2018-12-29T08:00:35.089Z,103021.83
2018-12-29T08:03:03.844Z,103022.94
2018-12-29T08:05:33.389Z,103012.23
2018-12-29T08:08:02.911Z,103012.97
2018-12-29T08:10:32.605Z,103011.32
2018-12-29T08:13:01.403Z,103013.49
2018-12-29T08:15:30.303Z,102998.04
2018-12-29T08:17:59.495Z,103007.97
2018-12-29T08:20:30.050Z,103010.40
2018-12-29T08:22:58.856Z,103011.47
2018-12-29T08:25:27.724Z,103011.10
2018-12-29T08:27:56.609Z,103008.53
2018-12-29T08:30:25.419Z,103008.16
2018-12-29T08:32:54.205Z,103007.95
2018-12-29T08:35:22.987Z,102997.98
2018-12-29T08:37:52.264Z,103008.10
2018-12-29T08:40:22.131Z,103007.52
2018-12-29T08:42:52.408Z,102994.64
2018-12-29T08:45:21.208Z,102986.91
2018-12-29T08:47:50.004Z,103003.66
2018-12-29T08:50:18.782Z,102996.48
2018-12-29T08:52:47.587Z,102994.06
2018-12-29T08:56:53.139Z,102991.88
2018-12-29T08:59:21.942Z,102982.28
2018-12-29T09:01:51.389Z,102987.22
2018-12-29T09:04:20.182Z,102994.95
2018-12-29T09:06:49.271Z,103004.12
2018-12-29T09:09:18.086Z,102990.84
2018-12-29T09:11:46.892Z,102990.44
2018-12-29T09:14:16.283Z,102968.69
2018-12-29T09:16:45.083Z,102966.66
2018-12-29T09:19:13.931Z,102964.42
2018-12-29T09:21:42.742Z,102944.91
2018-12-29T09:24:12.176Z,102947.11
2018-12-29T09:26:41.012Z,102946.02
2018-12-29T09:29:10.514Z,102931.98
2018-12-29T09:31:40.539Z,102936.41
2018-12-29T09:34:09.336Z,102929.05
2018-12-29T09:36:38.212Z,102931.21
2018-12-29T09:39:07.639Z,102935.59
2018-12-29T09:41:36.452Z,102936.84
2018-12-29T09:44:05.264Z,102930.50
2018-12-29T09:46:34.071Z,102927.73
2018-12-29T09:49:03.839Z,102920.88
2018-12-29T09:51:32.635Z,102928.58
2018-12-29T09:56:36.426Z,102925.18
2018-12-29T09:59:05.217Z,102944.84
2018-12-29T10:01:35.108Z,102944.43
2018-12-29T10:04:04.683Z,102957.28
2018-12-29T10:06:33.491Z,102959.27
2018-12-29T10:09:03.446Z,102950.38
2018-12-29T10:11:32.257Z,102940.94
2018-12-29T10:14:01.830Z,102926.84
2018-12-29T10:16:30.708Z,102925.05
2018-12-29T10:19:00.900Z,102915.05
2018-12-29T10:21:29.813Z,102896.58
2018-12-29T10:23:58.603Z,102901.83
2018-12-29T10:26:27.407Z,102895.38
2018-12-29T10:28:56.199Z,102895.70
2018-12-29T10:31:24.988Z,102883.66
2018-12-29T10:33:55.280Z,102882.50
2018-12-29T10:36:22.649Z,102902.72
2018-12-29T10:38:51.520Z,102909.55
2018-12-29T10:41:20.843Z,102909.69
2018-12-29T10:43:49.667Z,102900.65
2018-12-29T10:46:19.179Z,102887.75
2018-12-29T10:48:47.972Z,102883.73
2018-12-29T10:51:16.758Z,102885.95
2018-12-29T10:53:45.572Z,102872.98
2018-12-29T10:56:14.438Z,102877.37
2018-12-29T10:58:45.320Z,102860.55
2018-12-29T11:01:14.140Z,102848.30
2018-12-29T11:03:43.878Z,102823.66
2018-12-29T11:06:13.675Z,102802.11
2018-12-29T11:08:42.489Z,102783.54
2018-12-29T11:11:11.310Z,102774.17
2018-12-29T11:13:40.165Z,102766.89
2018-12-29T11:16:11.154Z,102764.92
2018-12-29T11:18:40.636Z,102786.98
2018-12-29T11:21:10.439Z,102807.55
2018-12-29T11:23:39.306Z,102791.12
2018-12-29T11:26:08.181Z,102780.52
2018-12-29T11:28:37.042Z,102768.90
2018-12-29T11:31:05.887Z,102773.75
2018-12-29T11:33:34.794Z,102752.55
2018-12-29T11:36:03.868Z,102741.69
2018-12-29T11:38:32.716Z,102740.45
2018-12-29T11:41:01.558Z,102739.03
2018-12-29T11:43:30.812Z,102736.08
2018-12-29T11:46:00.112Z,102741.44
2018-12-29T11:48:28.920Z,102740.16
2018-12-29T11:50:57.735Z,102737.06
2018-12-29T11:53:26.625Z,102733.70
2018-12-29T11:55:55.563Z,102740.70
2018-12-29T11:58:29.584Z,102744.67
2018-12-29T12:00:59.066Z,102712.84
2018-12-29T12:03:27.874Z,102701.48
2018-12-29T12:05:57.767Z,102724.53
2018-12-29T12:08:26.554Z,102727.31
2018-12-29T12:10:55.412Z,102724.77
2018-12-29T12:13:24.255Z,102718.92
2018-12-29T12:15:53.067Z,102718.08
2018-12-29T12:18:23.882Z,102728.64
2018-12-29T12:20:52.679Z,102733.26
2018-12-29T12:23:21.508Z,102718.52
2018-12-29T12:25:50.403Z,102711.75
2018-12-29T12:28:19.177Z,102716.92
2018-12-29T12:30:47.971Z,102728.53
2018-12-29T12:33:17.515Z,102732.03
2018-12-29T12:35:46.299Z,102733.70
2018-12-29T12:38:15.119Z,102708.80
2018-12-29T12:40:43.974Z,102707.75
2018-12-29T12:43:12.809Z,102700.20
2018-12-29T12:45:41.614Z,102695.83
2018-12-29T12:48:10.402Z,102677.76
2018-12-29T12:50:39.192Z,102672.19
2018-12-29T12:53:08.155Z,102677.59
2018-12-29T12:55:37.053Z,102669.84
2018-12-29T12:58:05.956Z,102658.97
2018-12-29T13:00:34.888Z,102649.94
2018-12-29T13:03:03.727Z,102648.89
2018-12-29T13:05:32.523Z,102620.88
2018-12-29T13:08:01.317Z,102615.54
2018-12-29T13:10:30.611Z,102624.81
2018-12-29T13:13:00.185Z,102608.11
2018-12-29T13:15:29.588Z,102592.87
2018-12-29T13:17:58.360Z,102599.31
2018-12-29T13:20:27.820Z,102598.03
2018-12-29T13:22:56.727Z,102589.37
2018-12-29T13:25:27.240Z,102566.81
2018-12-29T13:27:56.091Z,102555.95
2018-12-29T13:30:24.906Z,102563.32
2018-12-29T13:32:54.324Z,102556.12
2018-12-29T13:35:23.128Z,102548.92
2018-12-29T13:37:51.927Z,102539.72
2018-12-29T13:40:20.742Z,102551.95
2018-12-29T13:42:56.604Z,102566.14
2018-12-29T13:45:25.599Z,102551.58
2018-12-29T13:47:54.388Z,102555.45
2018-12-29T13:50:23.305Z,102554.53
2018-12-29T13:52:52.228Z,102547.16
2018-12-29T13:55:21.031Z,102534.56
2018-12-29T13:57:49.844Z,102527.19
2018-12-29T14:00:18.672Z,102531.81
2018-12-29T14:02:47.481Z,102534.93
2018-12-29T14:05:16.316Z,102531.97
2018-12-29T14:07:45.824Z,102531.06
2018-12-29T14:10:14.811Z,102536.02
2018-12-29T14:12:43.625Z,102545.55
2018-12-29T14:15:12.522Z,102541.55
2018-12-29T14:17:41.326Z,102540.09
2018-12-29T14:20:10.124Z,102545.50
2018-12-29T14:22:39.886Z,102546.25
2018-12-29T14:25:08.795Z,102558.03
2018-12-29T14:27:37.685Z,102557.78
2018-12-29T14:30:06.555Z,102556.87
2018-12-29T14:32:35.427Z,102566.58
2018-12-29T14:35:04.287Z,102562.95
2018-12-29T14:37:33.095Z,102567.94
2018-12-29T14:40:01.896Z,102581.38
2018-12-29T14:42:31.743Z,102582.92
2018-12-29T14:45:00.605Z,102590.66
2018-12-29T14:47:29.456Z,102578.50
2018-12-29T14:49:58.298Z,102578.50
2018-12-29T14:52:27.108Z,102560.61
2018-12-29T14:54:55.943Z,102562.41
2018-12-29T14:57:24.743Z,102564.98
2018-12-29T14:59:53.554Z,102564.48
2018-12-29T15:02:22.358Z,102565.30
2018-12-29T15:04:52.732Z,102577.45
2018-12-29T15:07:20.085Z,102570.83
2018-12-29T15:09:55.812Z,102579.70
2018-12-29T15:12:24.636Z,102585.77
2018-12-29T15:14:53.431Z,102590.94
2018-12-29T15:17:22.216Z,102586.14
2018-12-29T15:19:51.423Z,102582.60
2018-12-29T15:22:21.979Z,102587.30
2018-12-29T15:24:50.823Z,102583.42
2018-12-29T15:27:23.327Z,102587.09
2018-12-29T15:29:55.935Z,102587.62
2018-12-29T15:32:24.721Z,102569.70
2018-12-29T15:34:53.619Z,102558.45
2018-12-29T15:37:22.446Z,102552.79
2018-12-29T15:39:51.315Z,102561.83
2018-12-29T15:42:20.795Z,102568.03
2018-12-29T15:44:51.591Z,102556.17
2018-12-29T15:47:22.173Z,102559.09
2018-12-29T15:49:50.949Z,102546.32
2018-12-29T15:52:19.774Z,102530.45
2018-12-29T15:54:48.559Z,102531.75
2018-12-29T15:57:17.459Z,102534.63
2018-12-29T15:59:46.920Z,102548.82
2018-12-29T16:02:20.500Z,102535.39
2018-12-29T16:04:49.299Z,102529.17
2018-12-29T16:07:18.103Z,102521.56
2018-12-29T16:09:46.943Z,102523.39
2018-12-29T16:12:15.710Z,102529.09
2018-12-29T16:14:45.852Z,102510.03
2018-12-29T16:17:13.391Z,102510.33
2018-12-29T16:19:42.976Z,102504.91
2018-12-29T16:22:13.009Z,102500.83
2018-12-29T16:24:42.094Z,102510.20
2018-12-29T16:27:11.672Z,102499.08
2018-12-29T16:29:40.483Z,102498.88
2018-12-29T16:32:09.311Z,102493.25
2018-12-29T16:34:38.374Z,102496.88
2018-12-29T16:37:07.175Z,102483.96
2018-12-29T16:39:36.322Z,102480.75
2018-12-29T16:42:05.220Z,102489.20
2018-12-29T16:44:34.708Z,102482.50
2018-12-29T16:47:03.514Z,102490.16
2018-12-29T16:49:32.491Z,102486.83
2018-12-29T16:52:02.944Z,102486.95
2018-12-29T16:54:31.840Z,102482.33
2018-12-29T16:57:00.733Z,102491.66
2018-12-29T16:59:29.687Z,102480.95
2018-12-29T17:01:58.524Z,102479.56
2018-12-29T17:04:27.551Z,102476.36
2018-12-29T17:06:56.382Z,102487.52
2018-12-29T17:09:25.160Z,102480.43
2018-12-29T17:12:03.031Z,102482.55
2018-12-29T17:14:33.243Z,102486.59
2018-12-29T17:17:25.821Z,102482.83
2018-12-29T17:19:55.375Z,102479.28
2018-12-29T17:22:24.278Z,102480.86
2018-12-29T17:24:54.065Z,102477.48
2018-12-29T17:27:22.861Z,102485.55
2018-12-29T17:29:51.680Z,102480.13
2018-12-29T17:32:22.352Z,102477.45
2018-12-29T17:34:51.198Z,102477.08
2018-12-29T17:37:19.984Z,102479.57
2018-12-29T17:39:48.823Z,102468.06
2018-12-29T17:42:17.703Z,102473.55
2018-12-29T17:44:46.529Z,102472.16
2018-12-29T17:47:19.027Z,102469.70
2018-12-29T17:49:48.859Z,102469.98
2018-12-29T17:52:18.203Z,102472.73
2018-12-29T17:54:47.033Z,102476.23
2018-12-29T17:57:15.848Z,102479.31
2018-12-29T17:59:46.338Z,102491.48
2018-12-29T18:02:15.828Z,102489.94
2018-12-29T18:04:45.122Z,102492.94
2018-12-29T18:07:13.957Z,102485.09
2018-12-29T18:09:43.026Z,102483.38
2018-12-29T18:12:11.904Z,102495.17
2018-12-29T18:14:40.707Z,102494.05
2018-12-29T18:17:09.514Z,102500.63
2018-12-29T18:19:38.352Z,102491.36
2018-12-29T18:22:07.189Z,102487.06
2018-12-29T18:24:35.951Z,102481.03
2018-12-29T18:27:04.750Z,102485.73
2018-12-29T18:29:34.524Z,102488.88
2018-12-29T18:32:03.359Z,102493.30
2018-12-29T18:34:32.312Z,102488.41
2018-12-29T18:37:01.281Z,102490.89
2018-12-29T18:39:30.153Z,102490.78
2018-12-29T18:41:58.937Z,102501.03
2018-12-29T18:44:27.831Z,102502.07
2018-12-29T18:46:56.638Z,102511.82
2018-12-29T18:49:25.432Z,102508.06
2018-12-29T18:51:54.281Z,102523.48
2018-12-29T18:54:23.108Z,102522.73
2018-12-29T18:56:52.058Z,102528.28
2018-12-29T18:59:20.906Z,102533.72
2018-12-29T19:01:57.401Z,102533.34
2018-12-29T19:04:18.610Z,102547.95
2018-12-29T19:06:48.235Z,102556.63
2018-12-29T19:09:16.332Z,102553.88
2018-12-29T19:11:45.144Z,102558.14
2018-12-29T19:14:14.008Z,102548.80
2018-12-29T19:16:43.298Z,102553.70
2018-12-29T19:19:12.165Z,102555.37
2018-12-29T19:21:40.966Z,102553.70
2018-12-29T19:24:09.807Z,102560.92
2018-12-29T19:26:38.731Z,102574.50
2018-12-29T19:29:07.546Z,102561.78
2018-12-29T19:31:44.211Z,102562.19
2018-12-29T19:34:05.367Z,102558.53
2018-12-29T19:36:34.276Z,102577.72
2018-12-29T19:39:03.186Z,102566.30
2018-12-29T19:41:31.977Z,102571.84
2018-12-29T19:44:00.760Z,102570.55
2018-12-29T19:46:29.614Z,102578.03
2018-12-29T19:48:58.523Z,102588.00
2018-12-29T19:51:27.311Z,102594.09
2018-12-29T19:53:56.672Z,102579.95
2018-12-29T19:56:25.512Z,102592.73
2018-12-29T19:58:54.347Z,102602.04
2018-12-29T20:01:23.207Z,102606.01
2018-12-29T20:03:52.032Z,102595.38
2018-12-29T20:06:21.519Z,102601.09
2018-12-29T20:08:50.452Z,102611.81
2018-12-29T20:11:19.309Z,102613.20
2018-12-29T20:13:48.271Z,102623.09
2018-12-29T20:16:17.232Z,102619.59
2018-12-29T20:18:46.115Z,102621.35
2018-12-29T20:21:14.924Z,102628.36
2018-12-29T20:23:43.808Z,102637.41
2018-12-29T20:26:12.640Z,102641.53
2018-12-29T20:28:41.590Z,102631.19
2018-12-29T20:31:10.451Z,102627.78
2018-12-29T20:33:39.283Z,102637.83
2018-12-29T20:36:08.111Z,102647.09
2018-12-29T20:38:36.951Z,102644.76
2018-12-29T20:41:05.843Z,102646.80
2018-12-29T20:43:34.635Z,102639.67
2018-12-29T20:46:03.465Z,102658.52
2018-12-29T20:48:32.275Z,102656.56
2018-12-29T20:51:01.139Z,102663.78
2018-12-29T20:53:29.958Z,102672.70
2018-12-29T20:56:03.036Z,102669.20
2018-12-29T20:58:32.743Z,102662.73
2018-12-29T21:01:02.115Z,102656.77
2018-12-29T21:03:30.924Z,102657.56
2018-12-29T21:05:59.795Z,102654.98
2018-12-29T21:08:28.583Z,102653.39
2018-12-29T21:10:57.415Z,102669.78
2018-12-29T21:13:26.242Z,102674.07
2018-12-29T21:15:58.655Z,102667.20
2018-12-29T21:18:27.558Z,102668.73
2018-12-29T21:20:56.336Z,102674.82
2018-12-29T21:23:26.355Z,102669.86
2018-12-29T21:25:55.153Z,102660.31
2018-12-29T21:28:24.009Z,102669.95
2018-12-29T21:30:53.375Z,102659.23
2018-12-29T21:33:22.208Z,102672.41
2018-12-29T21:35:51.712Z,102674.06
2018-12-29T21:38:20.495Z,102672.94
2018-12-29T21:40:49.322Z,102680.16
2018-12-29T21:43:18.211Z,102684.41
2018-12-29T21:45:47.052Z,102685.33
2018-12-29T21:48:15.858Z,102688.53
2018-12-29T21:50:44.728Z,102688.66
2018-12-29T21:53:15.425Z,102680.36
2018-12-29T21:55:44.216Z,102682.20
2018-12-29T21:58:13.028Z,102686.70
2018-12-29T22:00:41.792Z,102677.48
2018-12-29T22:03:10.610Z,102685.61
2018-12-29T22:05:39.455Z,102687.31
2018-12-29T22:08:08.392Z,102692.31
2018-12-29T22:10:37.219Z,102690.86
2018-12-29T22:13:06.054Z,102704.20
2018-12-29T22:15:34.837Z,102722.12
2018-12-29T22:18:03.624Z,102725.45
2018-12-29T22:20:33.420Z,102719.78
2018-12-29T22:23:01.844Z,102727.12
2018-12-29T22:25:30.627Z,102719.91
2018-12-29T22:27:59.461Z,102723.41
2018-12-29T22:30:28.344Z,102724.16
2018-12-29T22:32:57.116Z,102727.53
2018-12-29T22:35:25.956Z,102736.70
2018-12-29T22:37:54.744Z,102721.81
2018-12-29T22:40:23.588Z,102732.36
2018-12-29T22:42:53.747Z,102734.81
2018-12-29T22:45:22.535Z,102729.72
2018-12-29T22:47:51.352Z,102733.97
2018-12-29T22:50:20.128Z,102736.39
2018-12-29T22:52:48.920Z,102735.34
2018-12-29T22:55:17.792Z,102739.96
2018-12-29T22:57:46.579Z,102744.00
2018-12-29T23:00:20.372Z,102741.97
2018-12-29T23:02:49.995Z,102742.64
2018-12-29T23:05:18.788Z,102743.39
2018-12-29T23:07:47.601Z,102758.89
2018-12-29T23:10:16.410Z,102748.80
2018-12-29T23:12:45.205Z,102758.89
2018-12-29T23:15:14.019Z,102754.88
2018-12-29T23:17:42.815Z,102761.34
2018-12-29T23:20:11.676Z,102764.30
2018-12-29T23:22:41.194Z,102765.22
2018-12-29T23:25:10.023Z,102778.64
2018-12-29T23:27:38.807Z,102780.85
2018-12-29T23:30:07.587Z,102775.48
2018-12-29T23:32:36.444Z,102765.35
2018-12-29T23:35:05.295Z,102772.42
2018-12-29T23:37:34.802Z,102786.09
2018-12-29T23:40:03.636Z,102785.72
2018-12-29T23:42:32.464Z,102795.51
2018-12-29T23:45:01.333Z,102808.97
2018-12-29T23:47:30.223Z,102803.50
2018-12-29T23:49:59.009Z,102810.50
2018-12-29T23:52:29.007Z,102813.77
2018-12-29T23:54:57.701Z,102819.48
2018-12-29T23:57:27.400Z,102819.06
2018-12-29T23:59:56.181Z,102826.31
